createdAt,value
2022-09-23T00:01:18.199Z,91.56
2022-09-23T00:03:51.805Z,91.47
2022-09-23T00:06:45.138Z,91.34
2022-09-23T00:09:17.482Z,91.49
2022-09-23T00:12:11.163Z,91.80
2022-09-23T00:14:45.879Z,91.98
2022-09-23T00:17:23.774Z,92.12
2022-09-23T00:19:55.598Z,92.31
2022-09-23T00:22:27.781Z,92.35
2022-09-23T00:24:59.607Z,92.39
2022-09-23T00:27:34.080Z,92.23
2022-09-23T00:30:09.135Z,92.17
2022-09-23T00:32:41.114Z,92.20
2022-09-23T00:35:13.182Z,92.14
2022-09-23T00:37:45.087Z,91.98
2022-09-23T00:40:17.596Z,91.97
2022-09-23T00:42:52.156Z,92.12
2022-09-23T00:45:24.185Z,92.28
2022-09-23T00:47:59.238Z,91.90
2022-09-23T00:50:37.413Z,91.86
2022-09-23T00:53:12.293Z,91.73
2022-09-23T00:55:56.784Z,91.74
2022-09-23T00:58:43.040Z,91.70
2022-09-23T01:01:15.397Z,91.62
2022-09-23T01:03:50.358Z,91.90
2022-09-23T01:06:25.380Z,91.93
2022-09-23T01:08:57.410Z,92.15
2022-09-23T01:11:42.247Z,92.12
2022-09-23T01:14:36.559Z,92.08
2022-09-23T01:17:15.999Z,92.18
2022-09-23T01:20:10.811Z,92.25
2022-09-23T01:22:50.734Z,92.06
2022-09-23T01:25:35.008Z,92.23
2022-09-23T01:28:30.383Z,92.11
2022-09-23T01:31:09.547Z,92.19
2022-09-23T01:33:58.134Z,92.17
2022-09-23T01:36:37.787Z,92.33
2022-09-23T01:39:14.146Z,92.02
2022-09-23T01:42:01.687Z,92.03
2022-09-23T01:44:44.725Z,92.05
2022-09-23T01:47:20.420Z,92.12
2022-09-23T01:49:57.226Z,92.49
2022-09-23T01:52:33.626Z,92.55
2022-09-23T01:55:12.027Z,92.54
2022-09-23T01:58:01.136Z,92.74
2022-09-23T02:00:40.763Z,92.78
2022-09-23T02:03:18.913Z,92.59
2022-09-23T02:06:01.912Z,92.64
2022-09-23T02:08:39.308Z,92.65
2022-09-23T02:11:14.021Z,92.74
2022-09-23T02:13:49.715Z,92.57
2022-09-23T02:16:26.224Z,92.56
2022-09-23T02:19:02.665Z,92.55
2022-09-23T02:21:37.531Z,92.72
2022-09-23T02:24:13.994Z,92.67
2022-09-23T02:26:53.032Z,92.75
2022-09-23T02:29:31.576Z,92.65
2022-09-23T02:32:14.315Z,92.65
2022-09-23T02:34:54.627Z,92.59
2022-09-23T02:37:38.933Z,92.54
2022-09-23T02:40:22.948Z,92.41
2022-09-23T02:43:06.932Z,92.62
2022-09-23T02:45:39.219Z,92.75
2022-09-23T02:48:15.262Z,92.99
2022-09-23T02:50:56.180Z,93.15
2022-09-23T02:53:28.039Z,93.21
2022-09-23T02:55:59.732Z,93.15
2022-09-23T02:58:32.105Z,93.24
2022-09-23T03:01:12.084Z,93.37
2022-09-23T03:03:54.858Z,93.42
2022-09-23T03:06:33.477Z,93.34
2022-09-23T03:09:14.601Z,93.31
2022-09-23T03:11:51.731Z,93.43
2022-09-23T03:14:31.967Z,93.57
2022-09-23T03:17:07.466Z,93.43
2022-09-23T03:19:48.437Z,93.43
2022-09-23T03:22:34.762Z,93.48
2022-09-23T03:25:12.626Z,93.27
2022-09-23T03:27:46.545Z,93.36
2022-09-23T03:30:21.782Z,93.34
2022-09-23T03:32:57.934Z,93.43
2022-09-23T03:35:55.084Z,93.38
2022-09-23T03:38:34.199Z,93.41
2022-09-23T03:41:17.126Z,93.44
2022-09-23T03:43:49.106Z,93.25
2022-09-23T03:46:30.422Z,93.06
2022-09-23T03:49:10.598Z,92.95
2022-09-23T03:51:44.701Z,92.81
2022-09-23T03:54:30.049Z,93.19
2022-09-23T03:57:04.773Z,93.02
2022-09-23T03:59:36.953Z,93.07
2022-09-23T04:02:09.531Z,92.86
2022-09-23T04:04:41.617Z,92.67
2022-09-23T04:07:14.122Z,92.64
2022-09-23T04:09:45.901Z,92.53
2022-09-23T04:12:18.878Z,92.83
2022-09-23T04:14:50.676Z,92.95
2022-09-23T04:17:22.552Z,92.97
2022-09-23T04:19:54.480Z,92.10
2022-09-23T04:22:26.580Z,92.46
2022-09-23T04:24:58.478Z,92.57
2022-09-23T04:27:34.193Z,91.80
2022-09-23T04:30:10.563Z,91.71
2022-09-23T04:32:43.051Z,91.76
2022-09-23T04:35:15.087Z,91.28
2022-09-23T04:37:50.373Z,91.43
2022-09-23T04:40:22.263Z,91.23
2022-09-23T04:42:56.487Z,91.29
2022-09-23T04:45:28.787Z,91.04
2022-09-23T04:48:00.732Z,91.35
2022-09-23T04:50:33.980Z,91.22
2022-09-23T04:53:06.389Z,91.48
2022-09-23T04:55:38.956Z,91.43
2022-09-23T04:58:11.718Z,91.40
2022-09-23T05:00:44.755Z,91.41
2022-09-23T05:03:17.182Z,91.43
2022-09-23T05:05:48.889Z,91.26
2022-09-23T05:08:22.201Z,91.40
2022-09-23T05:10:59.386Z,91.18
2022-09-23T05:13:31.908Z,90.94
2022-09-23T05:16:06.786Z,91.00
2022-09-23T05:18:41.304Z,90.71
2022-09-23T05:21:14.558Z,90.45
2022-09-23T05:23:52.473Z,90.68
2022-09-23T05:26:25.695Z,89.98
2022-09-23T05:29:00.612Z,89.78
2022-09-23T05:31:33.096Z,90.09
2022-09-23T05:34:06.411Z,89.93
2022-09-23T05:36:39.665Z,89.86
2022-09-23T05:39:11.628Z,89.97
2022-09-23T05:41:43.637Z,89.70
2022-09-23T05:44:15.453Z,89.44
2022-09-23T05:46:47.575Z,89.25
2022-09-23T05:49:19.710Z,89.03
2022-09-23T05:51:51.605Z,88.99
2022-09-23T05:54:23.581Z,89.16
2022-09-23T05:56:55.778Z,88.57
2022-09-23T05:59:27.664Z,88.20
2022-09-23T06:01:59.986Z,88.44
2022-09-23T06:04:31.886Z,88.66
2022-09-23T06:07:03.880Z,88.33
2022-09-23T06:09:36.887Z,88.63
2022-09-23T06:12:09.778Z,88.48
2022-09-23T06:14:41.655Z,88.52
2022-09-23T06:17:13.478Z,88.43
2022-09-23T06:19:45.306Z,87.89
2022-09-23T06:22:18.738Z,88.04
2022-09-23T06:24:50.588Z,87.62
2022-09-23T06:27:22.306Z,87.21
2022-09-23T06:29:54.331Z,87.04
2022-09-23T06:32:26.155Z,87.27
2022-09-23T06:34:58.061Z,86.95
2022-09-23T06:37:30.710Z,86.76
2022-09-23T06:40:05.509Z,85.67
2022-09-23T06:42:37.261Z,84.61
2022-09-23T06:45:15.095Z,85.23
2022-09-23T06:47:47.223Z,85.48
2022-09-23T06:50:19.188Z,84.65
2022-09-23T06:52:56.181Z,84.61
2022-09-23T06:55:28.785Z,84.51
2022-09-23T06:58:01.601Z,83.69
2022-09-23T07:00:33.376Z,83.30
2022-09-23T07:03:15.774Z,83.61
2022-09-23T07:05:58.864Z,83.32
2022-09-23T07:08:33.878Z,82.62
2022-09-23T07:11:13.541Z,83.20
2022-09-23T07:13:45.984Z,82.30
2022-09-23T07:16:18.079Z,82.54
2022-09-23T07:18:50.241Z,81.58
2022-09-23T07:21:22.152Z,82.38
2022-09-23T07:23:53.843Z,81.83
2022-09-23T07:26:26.287Z,81.59
2022-09-23T07:29:05.012Z,81.16
2022-09-23T07:31:40.021Z,80.79
2022-09-23T07:34:13.279Z,80.82
2022-09-23T07:36:45.206Z,81.28
2022-09-23T07:39:17.356Z,79.50
2022-09-23T07:41:52.169Z,80.38
2022-09-23T07:44:45.324Z,78.99
2022-09-23T07:47:17.786Z,78.55
2022-09-23T07:49:49.750Z,79.61
2022-09-23T07:52:21.647Z,79.05
2022-09-23T07:54:53.792Z,78.27
2022-09-23T07:57:25.632Z,79.13
2022-09-23T08:00:09.657Z,78.56
2022-09-23T08:03:02.074Z,77.34
2022-09-23T08:05:33.941Z,77.65
2022-09-23T08:08:07.197Z,76.33
2022-09-23T08:10:39.461Z,76.48
2022-09-23T08:13:11.389Z,76.21
2022-09-23T08:15:44.361Z,75.80
2022-09-23T08:18:16.144Z,75.31
2022-09-23T08:20:48.245Z,75.42
2022-09-23T08:23:21.117Z,75.14
2022-09-23T08:26:00.204Z,74.23
2022-09-23T08:28:33.889Z,73.34
2022-09-23T08:31:06.398Z,74.63
2022-09-23T08:33:41.196Z,74.99
2022-09-23T08:36:14.144Z,73.38
2022-09-23T08:38:49.150Z,72.91
2022-09-23T08:41:29.105Z,73.04
2022-09-23T08:44:13.135Z,73.13
2022-09-23T08:46:51.108Z,72.41
2022-09-23T08:49:32.769Z,73.24
2022-09-23T08:52:15.301Z,72.43
2022-09-23T08:54:50.794Z,73.15
2022-09-23T08:57:41.470Z,72.49
2022-09-23T09:00:21.220Z,71.50
2022-09-23T09:02:55.188Z,69.98
2022-09-23T09:05:31.088Z,69.15
2022-09-23T09:08:04.927Z,69.78
2022-09-23T09:10:44.919Z,67.81
2022-09-23T09:13:29.691Z,67.32
2022-09-23T09:17:01.400Z,67.55
2022-09-23T09:19:55.825Z,65.86
2022-09-23T09:22:42.939Z,65.64
2022-09-23T09:25:36.456Z,65.80
2022-09-23T09:28:19.049Z,66.77
2022-09-23T09:30:55.052Z,66.29
2022-09-23T09:33:33.246Z,66.70
2022-09-23T09:36:20.469Z,66.17
2022-09-23T09:38:53.462Z,66.38
2022-09-23T09:41:27.648Z,65.28
2022-09-23T09:44:01.113Z,65.41
2022-09-23T09:46:57.708Z,62.28
2022-09-23T09:49:46.810Z,61.50
2022-09-23T09:52:29.815Z,62.60
2022-09-23T09:55:25.373Z,62.50
2022-09-23T09:58:01.961Z,62.14
2022-09-23T10:00:43.401Z,62.52
2022-09-23T10:03:32.485Z,63.89
2022-09-23T10:06:17.415Z,63.94
2022-09-23T10:09:14.824Z,63.70
2022-09-23T10:12:13.203Z,62.34
2022-09-23T10:14:45.549Z,61.99
2022-09-23T10:17:24.227Z,61.99
2022-09-23T10:20:18.373Z,62.34
2022-09-23T10:22:50.592Z,60.33
2022-09-23T10:25:26.692Z,60.46
2022-09-23T10:27:58.633Z,60.34
2022-09-23T10:30:31.032Z,60.00
2022-09-23T10:33:03.658Z,60.17
2022-09-23T10:35:36.120Z,61.46
2022-09-23T10:38:12.680Z,62.05
2022-09-23T10:41:06.852Z,63.11
2022-09-23T10:44:07.977Z,63.62
2022-09-23T10:46:42.361Z,64.70
2022-09-23T10:49:39.566Z,67.43
2022-09-23T10:52:39.196Z,69.93
2022-09-23T10:55:27.814Z,72.23
2022-09-23T10:58:21.585Z,73.45
2022-09-23T11:01:03.883Z,75.02
2022-09-23T11:03:54.309Z,75.39
2022-09-23T11:06:33.743Z,75.90
2022-09-23T11:09:28.161Z,75.30
2022-09-23T11:12:14.982Z,74.95
2022-09-23T11:15:03.674Z,75.12
2022-09-23T11:17:52.083Z,73.19
2022-09-23T11:20:36.698Z,72.44
2022-09-23T11:23:35.087Z,71.91
2022-09-23T11:26:19.946Z,72.56
2022-09-23T11:29:12.394Z,71.68
2022-09-23T11:31:57.356Z,70.92
2022-09-23T11:34:55.103Z,70.43
2022-09-23T11:37:31.045Z,69.19
2022-09-23T11:40:06.047Z,67.94
2022-09-23T11:42:55.142Z,66.54
2022-09-23T11:45:32.171Z,65.76
2022-09-23T11:48:11.903Z,65.61
2022-09-23T11:50:50.129Z,66.55
2022-09-23T11:53:38.631Z,65.38
2022-09-23T11:56:32.134Z,64.30
2022-09-23T11:59:11.812Z,64.21
2022-09-23T12:01:49.854Z,64.64
2022-09-23T12:04:31.324Z,65.00
2022-09-23T12:07:12.343Z,65.04
2022-09-23T12:09:58.534Z,64.92
2022-09-23T12:12:42.289Z,64.74
2022-09-23T12:15:32.120Z,66.35
2022-09-23T12:18:22.328Z,66.22
2022-09-23T12:21:27.167Z,65.26
2022-09-23T12:24:49.009Z,65.76
2022-09-23T12:27:31.990Z,67.73
2022-09-23T12:30:35.202Z,68.63
2022-09-23T12:33:30.033Z,70.09
2022-09-23T12:36:30.483Z,70.57
2022-09-23T12:39:30.004Z,70.40
2022-09-23T12:42:06.418Z,70.50
2022-09-23T12:45:20.392Z,70.82
2022-09-23T12:48:43.096Z,69.88
2022-09-23T12:51:37.440Z,69.17
2022-09-23T12:54:30.110Z,67.95
2022-09-23T12:57:22.159Z,67.91
2022-09-23T12:59:59.446Z,67.43
2022-09-23T13:03:16.319Z,66.20
2022-09-23T13:06:23.766Z,65.76
2022-09-23T13:09:14.442Z,66.70
2022-09-23T13:11:50.435Z,68.49
2022-09-23T13:14:27.812Z,69.29
2022-09-23T13:17:02.402Z,69.45
2022-09-23T13:19:58.491Z,68.40
2022-09-23T13:22:58.289Z,67.78
2022-09-23T13:25:52.295Z,67.11
2022-09-23T13:28:57.948Z,67.52
2022-09-23T13:31:46.038Z,65.84
2022-09-23T13:34:33.937Z,66.10
2022-09-23T13:37:30.652Z,65.33
2022-09-23T13:40:21.110Z,63.47
2022-09-23T13:42:58.589Z,63.66
2022-09-23T13:45:51.087Z,64.74
2022-09-23T13:48:45.404Z,65.45
2022-09-23T13:51:30.476Z,63.73
2022-09-23T13:54:29.874Z,63.75
2022-09-23T13:57:27.838Z,63.93
2022-09-23T14:00:23.375Z,64.74
2022-09-23T14:03:28.650Z,64.82
2022-09-23T14:06:07.209Z,63.58
2022-09-23T14:08:51.485Z,62.64
2022-09-23T14:11:44.647Z,62.65
2022-09-23T14:14:39.565Z,62.08
2022-09-23T14:17:25.089Z,61.56
2022-09-23T14:20:14.102Z,62.05
2022-09-23T14:22:47.257Z,61.11
2022-09-23T14:25:40.235Z,61.35
2022-09-23T14:28:27.483Z,61.33
2022-09-23T14:31:03.345Z,61.68
2022-09-23T14:33:55.823Z,60.44
2022-09-23T14:36:56.674Z,60.64
2022-09-23T14:39:41.173Z,59.99
2022-09-23T14:42:26.171Z,60.67
2022-09-23T14:45:20.944Z,60.86
2022-09-23T14:48:18.636Z,60.95
2022-09-23T14:51:03.509Z,60.10
2022-09-23T14:53:55.546Z,59.71
2022-09-23T14:56:45.335Z,60.72
2022-09-23T14:59:38.192Z,61.74
2022-09-23T15:02:36.119Z,62.59
2022-09-23T15:05:42.593Z,63.61
2022-09-23T15:08:37.002Z,63.80
2022-09-23T15:11:22.512Z,64.34
2022-09-23T15:14:36.618Z,65.42
2022-09-23T15:17:09.120Z,66.38
2022-09-23T15:20:05.078Z,66.72
2022-09-23T15:22:49.799Z,66.67
2022-09-23T15:25:43.880Z,66.34
2022-09-23T15:28:35.883Z,66.06
2022-09-23T15:31:27.923Z,66.06
2022-09-23T15:34:11.293Z,65.53
2022-09-23T15:37:03.650Z,65.98
2022-09-23T15:39:55.649Z,66.14
2022-09-23T15:42:38.011Z,66.82
2022-09-23T15:45:14.598Z,66.13
2022-09-23T15:48:12.656Z,66.10
2022-09-23T15:51:08.185Z,66.15
2022-09-23T15:54:00.170Z,66.78
2022-09-23T15:56:52.204Z,67.10
2022-09-23T15:59:27.149Z,67.51
2022-09-23T16:02:24.794Z,68.03
2022-09-23T16:05:23.797Z,68.40
2022-09-23T16:08:09.143Z,68.59
2022-09-23T16:10:54.999Z,69.16
2022-09-23T16:13:47.155Z,69.35
2022-09-23T16:16:39.295Z,69.71
2022-09-23T16:19:14.805Z,70.15
2022-09-23T16:22:07.198Z,70.61
2022-09-23T16:24:38.931Z,71.18
2022-09-23T16:27:31.764Z,71.69
2022-09-23T16:30:14.550Z,72.19
2022-09-23T16:32:51.751Z,72.61
2022-09-23T16:35:43.817Z,72.91
2022-09-23T16:38:36.937Z,73.48
2022-09-23T16:41:31.550Z,73.66
2022-09-23T16:44:05.512Z,74.13
2022-09-23T16:46:57.815Z,74.57
2022-09-23T16:49:49.765Z,75.12
2022-09-23T16:52:42.047Z,75.25
2022-09-23T16:55:34.195Z,75.71
2022-09-23T16:58:26.254Z,75.87
2022-09-23T17:01:39.376Z,76.20
2022-09-23T17:04:12.177Z,76.70
2022-09-23T17:07:04.177Z,76.94
2022-09-23T17:09:56.222Z,77.38
2022-09-23T17:12:48.219Z,77.99
2022-09-23T17:15:40.790Z,78.16
2022-09-23T17:18:23.337Z,78.20
2022-09-23T17:21:15.479Z,78.52
2022-09-23T17:24:08.128Z,78.74
2022-09-23T17:26:56.812Z,78.90
2022-09-23T17:29:48.759Z,79.15
2022-09-23T17:32:40.923Z,79.47
2022-09-23T17:35:32.996Z,79.50
2022-09-23T17:38:07.466Z,79.53
2022-09-23T17:41:01.324Z,79.62
2022-09-23T17:44:00.916Z,79.59
2022-09-23T17:46:53.016Z,79.70
2022-09-23T17:49:47.657Z,79.70
2022-09-23T17:52:29.595Z,79.76
2022-09-23T17:55:21.695Z,79.64
2022-09-23T17:58:13.779Z,80.04
2022-09-23T18:01:06.420Z,79.94
2022-09-23T18:03:59.568Z,80.21
2022-09-23T18:06:52.073Z,80.45
2022-09-23T18:09:44.216Z,80.41
2022-09-23T18:12:37.409Z,80.61
2022-09-23T18:15:29.755Z,80.81
2022-09-23T18:18:22.937Z,81.06
2022-09-23T18:21:15.032Z,81.18
2022-09-23T18:27:20.663Z,81.07
2022-09-23T18:30:14.330Z,80.99
2022-09-23T18:32:56.237Z,81.14
2022-09-23T18:35:48.654Z,81.50
2022-09-23T18:38:40.882Z,82.05
2022-09-23T18:41:34.213Z,82.41
2022-09-23T18:44:26.932Z,82.16
2022-09-23T18:47:32.962Z,82.05
2022-09-23T18:50:32.726Z,82.05
2022-09-23T18:53:25.075Z,82.33
2022-09-23T18:56:19.635Z,82.51
2022-09-23T18:59:18.314Z,82.75
2022-09-23T19:02:02.993Z,82.48
2022-09-23T19:04:55.558Z,82.48
2022-09-23T19:07:37.649Z,82.67
2022-09-23T19:10:29.798Z,82.90
2022-09-23T19:13:24.688Z,82.92
2022-09-23T19:16:13.464Z,82.96
2022-09-23T19:19:06.838Z,82.83
2022-09-23T19:21:59.572Z,82.86
2022-09-23T19:24:51.760Z,83.06
2022-09-23T19:27:44.062Z,83.16
2022-09-23T19:30:37.331Z,83.09
2022-09-23T19:33:29.306Z,83.03
2022-09-23T19:36:26.936Z,83.11
2022-09-23T19:39:22.591Z,83.24
2022-09-23T19:42:14.731Z,83.47
2022-09-23T19:45:08.044Z,83.40
2022-09-23T19:48:00.929Z,83.28
2022-09-23T19:50:49.763Z,83.27
2022-09-23T19:53:45.782Z,83.82
2022-09-23T19:56:38.933Z,84.08
2022-09-23T19:59:31.355Z,84.06
2022-09-23T20:02:23.570Z,84.20
2022-09-23T20:05:20.267Z,84.10
2022-09-23T20:08:11.168Z,83.86
2022-09-23T20:11:11.656Z,84.07
2022-09-23T20:14:06.396Z,84.01
2022-09-23T20:17:00.156Z,83.98
2022-09-23T20:19:52.138Z,84.23
2022-09-23T20:22:43.162Z,84.66
2022-09-23T20:25:49.255Z,84.65
2022-09-23T20:28:41.356Z,84.65
2022-09-23T20:31:35.251Z,84.30
2022-09-23T20:34:29.795Z,84.36
2022-09-23T20:37:23.550Z,84.23
2022-09-23T20:40:16.256Z,84.28
2022-09-23T20:43:08.346Z,84.22
2022-09-23T20:46:01.850Z,84.25
2022-09-23T20:48:56.774Z,84.08
2022-09-23T20:51:50.125Z,84.13
2022-09-23T20:54:35.127Z,84.35
2022-09-23T20:57:28.122Z,84.46
2022-09-23T21:00:20.484Z,84.39
2022-09-23T21:03:12.447Z,83.80
2022-09-23T21:06:05.781Z,83.75
2022-09-23T21:08:58.104Z,83.95
2022-09-23T21:11:50.101Z,84.25
2022-09-23T21:14:42.278Z,84.35
2022-09-23T21:17:34.641Z,84.16
2022-09-23T21:20:26.708Z,84.20
2022-09-23T21:23:21.787Z,84.29
2022-09-23T21:26:17.578Z,84.69
2022-09-23T21:29:09.971Z,84.75
2022-09-23T21:32:02.113Z,84.85
2022-09-23T21:34:54.248Z,84.85
2022-09-23T21:37:46.642Z,84.97
2022-09-23T21:40:56.141Z,85.17
2022-09-23T21:43:49.682Z,85.18
2022-09-23T21:46:41.885Z,85.39
2022-09-23T21:49:34.288Z,85.41
2022-09-23T21:52:07.305Z,85.23
2022-09-23T21:54:59.400Z,85.38
2022-09-23T21:57:51.663Z,85.38
2022-09-23T22:00:44.045Z,85.43
2022-09-23T22:03:36.653Z,85.74
2022-09-23T22:06:13.964Z,85.84
2022-09-23T22:09:09.295Z,85.96
2022-09-23T22:12:09.948Z,85.70
2022-09-23T22:15:02.061Z,85.50
2022-09-23T22:17:54.748Z,85.34
2022-09-23T22:20:47.906Z,85.09
2022-09-23T22:23:29.748Z,84.84
2022-09-23T22:26:21.925Z,84.55
2022-09-23T22:29:33.807Z,84.36
2022-09-23T22:32:54.387Z,84.38
2022-09-23T22:35:48.296Z,84.36
2022-09-23T22:38:43.934Z,84.34
2022-09-23T22:41:28.798Z,84.22
2022-09-23T22:44:21.356Z,84.10
2022-09-23T22:47:03.715Z,84.14
2022-09-23T22:49:55.754Z,83.93
2022-09-23T22:52:49.258Z,83.59
2022-09-23T22:55:43.181Z,83.77
2022-09-23T22:58:35.154Z,83.78
2022-09-23T23:01:27.404Z,84.21
2022-09-23T23:04:22.371Z,84.52
2022-09-23T23:07:16.586Z,84.49
2022-09-23T23:10:10.524Z,84.82
2022-09-23T23:13:03.973Z,85.01
2022-09-23T23:15:55.933Z,85.18
2022-09-23T23:18:48.087Z,85.11
2022-09-23T23:21:43.210Z,84.91
2022-09-23T23:24:28.644Z,84.97
2022-09-23T23:27:20.794Z,84.96
2022-09-23T23:30:08.456Z,85.30
2022-09-23T23:33:00.482Z,85.62
2022-09-23T23:35:54.060Z,85.58
2022-09-23T23:38:49.950Z,85.53
2022-09-23T23:41:42.843Z,85.28
2022-09-23T23:44:34.982Z,85.43
2022-09-23T23:47:27.571Z,85.01
2022-09-23T23:50:19.577Z,85.11
2022-09-23T23:53:11.997Z,85.19
2022-09-23T23:56:07.764Z,85.28
2022-09-23T23:59:02.530Z,85.19
